createdAt,value
2023-07-21T00:01:58.424Z,100174.13
2023-07-21T00:05:00.100Z,100169.72
2023-07-21T00:08:01.738Z,100170.72
2023-07-21T00:11:04.193Z,100174.34
2023-07-21T00:14:11.197Z,100169.72
2023-07-21T00:17:12.821Z,100166.31
2023-07-21T00:20:20.830Z,100166.31
2023-07-21T00:23:24.145Z,100160.22
2023-07-21T00:26:26.149Z,100159.38
2023-07-21T00:29:27.966Z,100158.53
2023-07-21T00:32:32.436Z,100162.09
2023-07-21T00:35:35.540Z,100151.19
2023-07-21T00:38:37.080Z,100153.75
2023-07-21T00:41:38.626Z,100150.63
2023-07-21T00:44:40.189Z,100147.69
2023-07-21T00:50:52.758Z,100137.28
2023-07-21T00:53:55.309Z,100135.78
2023-07-21T00:56:58.504Z,100139.16
2023-07-21T01:00:01.557Z,100134.94
2023-07-21T01:03:04.573Z,100138.50
2023-07-21T01:06:08.824Z,100140.38
2023-07-21T01:09:13.413Z,100134.06
2023-07-21T01:12:15.539Z,100144.13
2023-07-21T01:15:17.471Z,100139.72
2023-07-21T01:18:20.656Z,100138.00
2023-07-21T01:21:39.959Z,100139.91
2023-07-21T01:25:10.524Z,100138.88
2023-07-21T01:28:14.848Z,100146.19
2023-07-21T01:31:18.062Z,100140.94
2023-07-21T01:34:19.929Z,100144.69
2023-07-21T01:37:24.450Z,100140.28
2023-07-21T01:40:26.795Z,100137.72
2023-07-21T01:43:28.610Z,100145.06
2023-07-21T01:46:31.029Z,100145.75
2023-07-21T01:49:32.644Z,100151.19
2023-07-21T01:52:36.256Z,100160.03
2023-07-21T01:55:44.224Z,100159.19
2023-07-21T01:58:48.193Z,100158.16
2023-07-21T02:01:55.049Z,100153.53
2023-07-21T02:04:56.824Z,100152.03
2023-07-21T02:07:59.172Z,100144.22
2023-07-21T02:11:01.024Z,100147.41
2023-07-21T02:14:21.274Z,100143.69
2023-07-21T02:17:23.038Z,100145.56
2023-07-21T02:20:24.643Z,100149.13
2023-07-21T02:23:26.411Z,100155.81
2023-07-21T02:26:28.378Z,100154.97
2023-07-21T02:29:30.083Z,100149.69
2023-07-21T02:32:31.812Z,100145.28
2023-07-21T02:35:33.599Z,100127.41
2023-07-21T02:38:35.262Z,100134.38
2023-07-21T02:41:36.800Z,100119.03
2023-07-21T02:44:38.464Z,100120.06
2023-07-21T02:47:40.240Z,100125.81
2023-07-21T02:50:42.430Z,100111.97
2023-07-21T02:53:44.207Z,100115.75
2023-07-21T02:56:45.851Z,100112.34
2023-07-21T02:59:54.313Z,100118.19
2023-07-21T03:03:04.880Z,100112.91
2023-07-21T03:06:07.677Z,100109.19
2023-07-21T03:09:10.744Z,100105.59
2023-07-21T03:12:12.537Z,100109.34
2023-07-21T03:15:34.091Z,100101.16
2023-07-21T03:18:41.876Z,100103.91
2023-07-21T03:21:47.669Z,100102.88
2023-07-21T03:24:49.464Z,100105.22
2023-07-21T03:27:52.911Z,100105.69
2023-07-21T03:30:58.627Z,100099.38
2023-07-21T03:34:00.325Z,100085.75
2023-07-21T03:37:06.002Z,100088.47
2023-07-21T03:40:08.729Z,100086.97
2023-07-21T03:43:10.385Z,100079.63
2023-07-21T03:46:13.758Z,100071.47
2023-07-21T03:49:36.315Z,100081.69
2023-07-21T03:52:43.976Z,100070.16
2023-07-21T03:55:49.236Z,100072.41
2023-07-21T03:58:50.781Z,100069.88
2023-07-21T04:01:53.464Z,100066.97
2023-07-21T04:04:55.209Z,100062.16
2023-07-21T04:07:57.400Z,100065.56
2023-07-21T04:10:58.970Z,100055.50
2023-07-21T04:14:02.046Z,100063.50
2023-07-21T04:17:03.917Z,100065.16
2023-07-21T04:20:07.468Z,100065.16
2023-07-21T04:23:10.188Z,100068.72
2023-07-21T04:26:16.031Z,100070.63
2023-07-21T04:29:29.843Z,100066.41
2023-07-21T04:32:39.868Z,100063.66
2023-07-21T04:35:47.074Z,100059.06
2023-07-21T04:38:52.235Z,100054.81
2023-07-21T04:41:55.558Z,100044.75
2023-07-21T04:44:57.334Z,100049.19
2023-07-21T04:47:59.159Z,100045.25
2023-07-21T04:51:02.366Z,100046.25
2023-07-21T04:54:04.115Z,100052.75
2023-07-21T04:57:06.279Z,100049.00
2023-07-21T05:00:13.007Z,100041.00
2023-07-21T05:03:14.916Z,100042.69
2023-07-21T05:06:18.253Z,100039.97
2023-07-21T05:09:24.558Z,100035.19
2023-07-21T05:12:28.060Z,100041.47
2023-07-21T05:16:02.079Z,100032.06
2023-07-21T05:19:14.473Z,100026.63
2023-07-21T05:22:37.063Z,100032.72
2023-07-21T05:25:38.836Z,100032.72
2023-07-21T05:28:40.653Z,100039.00
2023-07-21T05:31:42.490Z,100038.19
2023-07-21T05:34:57.372Z,100041.56
2023-07-21T05:37:59.188Z,100038.84
2023-07-21T05:45:26.028Z,100054.16
2023-07-21T05:48:29.482Z,100044.09
2023-07-21T05:51:36.634Z,100044.09
2023-07-21T05:54:49.800Z,100051.41
2023-07-21T05:57:54.067Z,100041.34
2023-07-21T06:00:55.740Z,100036.78
2023-07-21T06:03:57.690Z,100043.25
2023-07-21T06:06:59.616Z,100037.78
2023-07-21T06:10:25.069Z,100044.09
2023-07-21T06:13:40.279Z,100038.28
2023-07-21T06:17:08.012Z,100036.56
2023-07-21T06:23:13.860Z,100037.22
2023-07-21T06:26:16.042Z,100027.81
2023-07-21T06:29:18.205Z,100031.19
2023-07-21T06:32:20.243Z,100017.56
2023-07-21T06:35:42.638Z,100024.50
2023-07-21T06:39:10.475Z,100024.31
2023-07-21T06:42:45.090Z,100017.81
2023-07-21T06:46:24.879Z,100009.44
2023-07-21T06:49:50.716Z,100013.88
2023-07-21T06:53:06.483Z,100004.47
2023-07-21T06:56:08.397Z,100007.38
2023-07-21T06:59:09.978Z,100006.34
2023-07-21T07:02:11.742Z,99998.78
2023-07-21T07:05:15.073Z,100008.84
2023-07-21T07:08:17.125Z,100005.13
2023-07-21T07:11:18.770Z,100002.38
2023-07-21T07:14:20.392Z,100000.28
2023-07-21T07:17:21.983Z,100000.28
2023-07-21T07:20:24.443Z,100003.00
2023-07-21T07:23:26.090Z,99999.25
2023-07-21T07:26:29.163Z,99997.38
2023-07-21T07:29:31.668Z,99999.91
2023-07-21T07:32:33.444Z,99995.31
2023-07-21T07:35:35.110Z,99989.63
2023-07-21T07:38:36.669Z,99996.59
2023-07-21T07:41:39.294Z,99988.41
2023-07-21T07:44:40.855Z,99988.41
2023-07-21T07:47:44.253Z,99995.56
2023-07-21T07:50:45.877Z,99984.66
2023-07-21T07:53:47.419Z,99989.06
2023-07-21T07:56:49.148Z,99991.78
2023-07-21T07:59:51.759Z,99990.75
2023-07-21T08:02:53.442Z,99986.34
2023-07-21T08:05:55.406Z,99983.22
2023-07-21T08:08:56.978Z,99978.44
2023-07-21T08:12:00.106Z,99982.88
2023-07-21T08:15:02.030Z,99980.97
2023-07-21T08:18:04.245Z,99983.50
2023-07-21T08:21:23.812Z,99987.09
2023-07-21T08:24:25.919Z,99986.63
2023-07-21T08:27:29.011Z,99978.81
2023-07-21T08:30:38.221Z,99971.47
2023-07-21T08:33:45.606Z,99981.16
2023-07-21T08:36:54.570Z,99978.25
2023-07-21T08:39:58.959Z,99978.44
2023-07-21T08:43:04.200Z,99982.00
2023-07-21T08:46:09.667Z,99981.34
2023-07-21T08:49:13.216Z,99981.16
2023-07-21T08:52:15.868Z,99977.59
2023-07-21T08:55:17.945Z,99980.31
2023-07-21T08:58:20.509Z,99974.00
2023-07-21T09:01:22.134Z,99968.53
2023-07-21T09:04:25.766Z,99965.28
2023-07-21T09:07:27.473Z,99960.66
2023-07-21T09:10:34.645Z,99963.81
2023-07-21T09:13:36.378Z,99973.91
2023-07-21T09:16:41.030Z,99963.63
2023-07-21T09:19:45.257Z,99962.59
2023-07-21T09:22:50.953Z,99962.19
2023-07-21T09:25:54.566Z,99958.44
2023-07-21T09:28:56.121Z,99962.66
2023-07-21T09:31:58.124Z,99959.53
2023-07-21T09:35:02.036Z,99958.47
2023-07-21T09:38:03.747Z,99963.75
2023-07-21T09:41:13.716Z,99964.19
2023-07-21T09:44:16.118Z,99958.09
2023-07-21T09:47:18.329Z,99958.94
2023-07-21T09:50:20.074Z,99953.66
2023-07-21T09:53:26.247Z,99948.22
2023-07-21T09:56:31.050Z,99955.38
2023-07-21T09:59:35.700Z,99949.91
2023-07-21T10:02:37.451Z,99953.47
2023-07-21T10:05:41.958Z,99951.59
2023-07-21T10:08:44.066Z,99962.09
2023-07-21T10:11:47.748Z,99960.03
2023-07-21T10:14:52.840Z,99957.13
2023-07-21T10:18:04.523Z,99948.53
2023-07-21T10:21:07.156Z,99948.53
2023-07-21T10:24:09.022Z,99948.31
2023-07-21T10:27:22.699Z,99939.75
2023-07-21T10:30:24.891Z,99937.00
2023-07-21T10:33:30.457Z,99936.59
2023-07-21T10:36:53.308Z,99930.97
2023-07-21T10:39:55.957Z,99928.22
2023-07-21T10:42:57.890Z,99930.09
2023-07-21T10:45:59.571Z,99930.09
2023-07-21T10:49:01.352Z,99933.47
2023-07-21T10:52:03.856Z,99937.03
2023-07-21T10:55:05.881Z,99936.19
2023-07-21T10:58:07.552Z,99945.22
2023-07-21T11:01:09.228Z,99947.78
2023-07-21T11:04:12.442Z,99947.78
2023-07-21T11:07:14.478Z,99943.16
2023-07-21T11:10:16.897Z,99953.88
2023-07-21T11:13:18.767Z,99953.88
2023-07-21T11:16:20.369Z,99941.91
2023-07-21T11:19:23.979Z,99932.47
2023-07-21T11:22:25.585Z,99939.81
2023-07-21T11:25:27.516Z,99943.41
2023-07-21T11:28:30.345Z,99931.44
2023-07-21T11:31:34.275Z,99933.31
2023-07-21T11:34:37.350Z,99926.81
2023-07-21T11:37:41.179Z,99930.59
2023-07-21T11:40:46.290Z,99930.59
2023-07-21T11:43:50.858Z,99930.41
2023-07-21T11:47:11.212Z,99935.84
2023-07-21T11:50:14.598Z,99935.19
2023-07-21T11:53:16.754Z,99931.44
2023-07-21T11:56:18.759Z,99941.50
2023-07-21T11:59:21.529Z,99937.94
2023-07-21T12:02:24.817Z,99936.03
2023-07-21T12:05:26.812Z,99948.03
2023-07-21T12:08:28.375Z,99952.44
2023-07-21T12:11:29.909Z,99969.88
2023-07-21T12:14:31.508Z,99963.16
2023-07-21T12:17:33.901Z,99979.38
2023-07-21T12:20:35.521Z,99976.41
2023-07-21T12:23:37.668Z,99962.75
2023-07-21T12:26:39.481Z,99957.50
2023-07-21T12:29:46.321Z,99952.88
2023-07-21T12:32:48.832Z,99956.47
2023-07-21T12:35:50.775Z,99948.06
2023-07-21T12:38:52.631Z,99939.03
2023-07-21T12:41:57.081Z,99920.56
2023-07-21T12:44:59.488Z,99922.44
2023-07-21T12:48:01.780Z,99921.38
2023-07-21T12:51:03.869Z,99931.28
2023-07-21T12:54:05.830Z,99929.38
2023-07-21T12:57:08.382Z,99939.25
2023-07-21T13:00:14.402Z,99943.69
2023-07-21T13:03:16.656Z,99941.81
2023-07-21T13:06:18.502Z,99941.81
2023-07-21T13:09:20.378Z,99944.34
2023-07-21T13:12:22.349Z,99931.53
2023-07-21T13:15:24.192Z,99932.38
2023-07-21T13:18:25.766Z,99936.78
2023-07-21T13:21:27.308Z,99934.03
2023-07-21T13:24:29.274Z,99942.03
2023-07-21T13:27:30.942Z,99941.00
2023-07-21T13:30:32.556Z,99935.53
2023-07-21T13:33:34.096Z,99939.97
2023-07-21T13:36:35.667Z,99938.91
2023-07-21T13:39:37.373Z,99932.41
2023-07-21T13:42:39.063Z,99934.09
2023-07-21T13:45:40.650Z,99933.03
2023-07-21T13:48:42.428Z,99930.31
2023-07-21T13:51:44.295Z,99933.69
2023-07-21T13:54:45.895Z,99930.94
2023-07-21T13:57:47.733Z,99930.75
2023-07-21T14:00:49.365Z,99929.47
2023-07-21T14:03:50.987Z,99926.25
2023-07-21T14:06:52.679Z,99924.75
2023-07-21T14:09:54.228Z,99928.75
2023-07-21T14:12:55.761Z,99928.56
2023-07-21T14:15:57.382Z,99935.25
2023-07-21T14:19:00.322Z,99928.97
2023-07-21T14:22:01.866Z,99924.75
2023-07-21T14:25:04.103Z,99926.38
2023-07-21T14:28:05.687Z,99922.16
2023-07-21T14:31:07.916Z,99919.63
2023-07-21T14:34:09.496Z,99925.75
2023-07-21T14:37:11.057Z,99914.34
2023-07-21T14:40:13.138Z,99915.59
2023-07-21T14:43:14.932Z,99918.75
2023-07-21T14:46:16.536Z,99918.09
2023-07-21T14:49:18.173Z,99918.50
2023-07-21T14:52:19.727Z,99912.63
2023-07-21T14:55:21.292Z,99917.91
2023-07-21T14:58:22.902Z,99912.63
2023-07-21T15:01:24.596Z,99918.09
2023-07-21T15:04:26.880Z,99922.50
2023-07-21T15:07:28.444Z,99918.09
2023-07-21T15:10:30.020Z,99914.72
2023-07-21T15:13:31.787Z,99913.22
2023-07-21T15:16:33.722Z,99917.19
2023-07-21T15:19:35.293Z,99918.03
2023-07-21T15:22:36.819Z,99933.38
2023-07-21T15:25:38.420Z,99931.50
2023-07-21T15:28:40.117Z,99923.88
2023-07-21T15:31:42.034Z,99929.16
2023-07-21T15:34:43.737Z,99928.09
2023-07-21T15:37:45.321Z,99926.22
2023-07-21T15:40:46.976Z,99919.72
2023-07-21T15:43:48.551Z,99914.06
2023-07-21T15:46:50.552Z,99911.13
2023-07-21T15:49:52.952Z,99899.63
2023-07-21T15:52:54.634Z,99907.63
2023-07-21T15:55:56.246Z,99913.72
2023-07-21T15:58:57.764Z,99918.16
2023-07-21T16:01:59.394Z,99904.50
2023-07-21T16:05:01.800Z,99913.34
2023-07-21T16:08:04.600Z,99906.75
2023-07-21T16:11:06.336Z,99901.91
2023-07-21T16:14:07.957Z,99901.28
2023-07-21T16:17:09.735Z,99905.88
2023-07-21T16:20:13.389Z,99914.94
2023-07-21T16:23:14.975Z,99907.56
2023-07-21T16:26:19.426Z,99908.22
2023-07-21T16:29:21.103Z,99899.63
2023-07-21T16:32:22.843Z,99901.53
2023-07-21T16:35:24.665Z,99912.03
2023-07-21T16:38:26.257Z,99910.78
2023-07-21T16:41:28.199Z,99900.31
2023-07-21T16:44:34.338Z,99899.72
2023-07-21T16:47:36.107Z,99902.44
2023-07-21T16:50:39.815Z,99907.50
2023-07-21T16:53:41.330Z,99901.59
2023-07-21T16:56:42.913Z,99900.94
2023-07-21T16:59:55.909Z,99903.91
2023-07-21T17:02:58.381Z,99899.28
2023-07-21T17:05:59.997Z,99902.84
2023-07-21T17:09:01.941Z,99904.53
2023-07-21T17:12:03.666Z,99908.94
2023-07-21T17:15:06.091Z,99908.13
2023-07-21T17:18:08.682Z,99911.88
2023-07-21T17:21:10.504Z,99898.03
2023-07-21T17:24:12.074Z,99896.53
2023-07-21T17:27:13.983Z,99899.47
2023-07-21T17:30:15.930Z,99897.56
2023-07-21T17:33:17.661Z,99896.53
2023-07-21T17:36:19.215Z,99902.44
2023-07-21T17:39:20.760Z,99904.97
2023-07-21T17:42:22.425Z,99912.94
2023-07-21T17:45:24.725Z,99901.84
2023-07-21T17:48:26.666Z,99913.41
2023-07-21T17:51:28.487Z,99925.19
2023-07-21T17:54:30.224Z,99937.78
2023-07-21T17:57:32.573Z,99940.31
2023-07-21T18:00:39.903Z,99940.13
2023-07-21T18:03:44.690Z,99950.00
2023-07-21T18:06:46.214Z,99954.22
2023-07-21T18:09:47.730Z,99946.03
2023-07-21T18:12:49.837Z,99942.44
2023-07-21T18:15:51.856Z,99948.56
2023-07-21T18:18:53.328Z,99954.03
2023-07-21T18:21:55.497Z,99966.81
2023-07-21T18:24:57.179Z,99978.38
2023-07-21T18:27:58.825Z,99982.19
2023-07-21T18:31:00.396Z,99993.94
2023-07-21T18:34:02.002Z,99997.50
2023-07-21T18:37:03.950Z,99997.50
2023-07-21T18:40:15.034Z,100000.91
2023-07-21T18:43:16.546Z,100003.63
2023-07-21T18:46:18.155Z,100006.34
2023-07-21T18:49:21.954Z,100015.59
2023-07-21T18:52:25.463Z,100026.53
2023-07-21T18:55:27.696Z,100022.09
2023-07-21T18:58:29.183Z,100030.88
2023-07-21T19:01:31.832Z,100028.53
2023-07-21T19:04:33.500Z,100021.16
2023-07-21T19:07:35.179Z,100028.88
2023-07-21T19:10:39.547Z,100024.66
2023-07-21T19:13:41.085Z,100030.94
2023-07-21T19:16:42.661Z,100039.31
2023-07-21T19:19:45.630Z,100044.56
2023-07-21T19:22:47.269Z,100045.88
2023-07-21T19:25:52.374Z,100050.09
2023-07-21T19:28:54.026Z,100057.06
2023-07-21T19:31:55.771Z,100060.41
2023-07-21T19:34:57.412Z,100064.00
2023-07-21T19:37:59.031Z,100065.50
2023-07-21T19:41:06.672Z,100076.69
2023-07-21T19:44:08.268Z,100074.13
2023-07-21T19:47:10.000Z,100085.50
2023-07-21T19:50:12.926Z,100080.91
2023-07-21T19:53:14.499Z,100087.88
2023-07-21T19:56:17.708Z,100094.81
2023-07-21T19:59:19.352Z,100102.16
2023-07-21T20:02:21.065Z,100107.44
2023-07-21T20:05:22.720Z,100116.28
2023-07-21T20:08:24.437Z,100116.06
2023-07-21T20:11:26.574Z,100115.88
2023-07-21T20:14:28.241Z,100119.44
2023-07-21T20:17:29.932Z,100122.81
2023-07-21T20:20:33.154Z,100127.25
2023-07-21T20:23:35.188Z,100128.94
2023-07-21T20:26:37.417Z,100126.03
2023-07-21T20:29:39.009Z,100114.09
2023-07-21T20:32:43.719Z,100115.97
2023-07-21T20:35:47.257Z,100121.22
2023-07-21T20:38:48.850Z,100118.50
2023-07-21T20:41:50.583Z,100128.38
2023-07-21T20:44:52.159Z,100128.38
2023-07-21T20:47:53.844Z,100140.16
2023-07-21T20:50:57.339Z,100139.94
2023-07-21T20:53:58.923Z,100149.00
2023-07-21T20:57:00.463Z,100148.16
2023-07-21T21:00:02.130Z,100158.03
2023-07-21T21:03:04.078Z,100161.63
2023-07-21T21:06:05.838Z,100147.97
2023-07-21T21:09:07.731Z,100138.91
2023-07-21T21:12:11.357Z,100149.63
2023-07-21T21:15:12.997Z,100141.44
2023-07-21T21:18:15.488Z,100147.56
2023-07-21T21:21:17.221Z,100143.34
2023-07-21T21:24:19.120Z,100149.63
2023-07-21T21:27:20.732Z,100166.03
2023-07-21T21:30:23.968Z,100165.00
2023-07-21T21:33:26.069Z,100165.00
2023-07-21T21:36:27.919Z,100165.00
2023-07-21T21:39:29.707Z,100166.91
2023-07-21T21:42:34.355Z,100175.94
2023-07-21T21:45:35.985Z,100180.34
2023-07-21T21:48:37.593Z,100184.78
2023-07-21T21:51:39.144Z,100180.34
2023-07-21T21:54:40.936Z,100180.34
2023-07-21T21:57:43.910Z,100181.19
2023-07-21T22:00:45.642Z,100177.44
2023-07-21T22:03:47.517Z,100177.44
2023-07-21T22:06:49.184Z,100181.00
2023-07-21T22:09:50.729Z,100182.91
2023-07-21T22:12:52.463Z,100180.16
2023-07-21T22:15:54.143Z,100182.91
2023-07-21T22:18:55.749Z,100179.09
2023-07-21T22:21:57.297Z,100186.47
2023-07-21T22:24:58.920Z,100195.50
2023-07-21T22:28:03.162Z,100184.38
2023-07-21T22:31:15.655Z,100189.63
2023-07-21T22:34:17.339Z,100189.84
2023-07-21T22:37:18.966Z,100187.13
2023-07-21T22:40:20.652Z,100192.59
2023-07-21T22:43:22.223Z,100194.47
2023-07-21T22:46:24.662Z,100200.78
2023-07-21T22:49:26.694Z,100198.88
2023-07-21T22:52:28.251Z,100198.06
2023-07-21T22:55:29.835Z,100202.47
2023-07-21T22:58:31.420Z,100199.72
2023-07-21T23:01:33.085Z,100198.88
2023-07-21T23:04:34.843Z,100198.88
2023-07-21T23:07:36.627Z,100202.47
2023-07-21T23:10:38.269Z,100207.09
2023-07-21T23:13:39.868Z,100206.25
2023-07-21T23:16:41.436Z,100208.31
2023-07-21T23:19:42.994Z,100206.44
2023-07-21T23:22:44.579Z,100202.22
2023-07-21T23:25:46.160Z,100203.03
2023-07-21T23:28:48.421Z,100210.63
2023-07-21T23:31:50.002Z,100204.28
2023-07-21T23:34:51.648Z,100199.88
2023-07-21T23:37:53.219Z,100204.28
2023-07-21T23:40:54.891Z,100207.22
2023-07-21T23:43:56.475Z,100205.75
2023-07-21T23:46:58.096Z,100208.47
2023-07-21T23:49:59.699Z,100206.75
2023-07-21T23:53:01.277Z,100201.28
2023-07-21T23:56:02.834Z,100201.50
2023-07-21T23:59:04.406Z,100204.25
